Time;durP1;ratioP1;P1;durP2;ratioP2;P2;SDS_P1;SDS_P2;PMS_P1;PMS_P2;Temp;Humidity;BMP_temperature;BMP_pressure;BME280_temperature;BME280_humidity;BME280_pressure;Samples;Min_cycle;Max_cycle;Signal;HPM_P1;HPM_P2
2022/05/14 00:01:21;;;;;;;4.68;0.93;;;;;;;31.65;18.47;98375.31;5067154;28;20040;-80
2022/05/14 00:03:47;;;;;;;1.40;0.70;;;;;;;31.51;18.21;98373.16;5066032;28;20032;-80
2022/05/14 00:06:19;;;;;;;3.67;0.70;;;;;;;31.41;18.53;98375.19;5066526;28;20035;-79
2022/05/14 00:08:46;;;;;;;0.60;0.60;;;;;;;31.44;18.37;98379.16;5064308;28;20029;-79
2022/05/14 00:13:57;;;;;;;0.70;0.70;;;;;;;31.34;18.41;98377.59;5064604;28;20051;-80
2022/05/14 00:16:25;;;;;;;3.50;0.57;;;;;;;30.80;18.56;98381.28;5064706;28;20439;-80
2022/05/14 00:18:52;;;;;;;1.30;0.60;;;;;;;31.11;18.41;98379.03;5068094;28;20032;-79
2022/05/14 00:21:19;;;;;;;1.73;0.98;;;;;;;31.18;18.19;98386.47;5049066;28;20565;-79
2022/05/14 00:23:45;;;;;;;1.05;0.73;;;;;;;31.22;18.45;98378.56;5068069;28;20040;-79
2022/05/14 00:26:12;;;;;;;1.75;0.60;;;;;;;31.42;18.13;98379.66;5067490;28;20541;-79
2022/05/14 00:28:38;;;;;;;0.82;0.70;;;;;;;31.45;17.67;98382.78;5066945;28;20482;-79
2022/05/14 00:31:04;;;;;;;1.60;0.60;;;;;;;31.35;18.15;98385.63;5067984;28;20047;-79
2022/05/14 00:33:31;;;;;;;0.98;0.60;;;;;;;30.97;18.05;98379.69;5068023;28;20040;-80
2022/05/14 00:35:57;;;;;;;1.17;0.82;;;;;;;30.98;18.38;98378.44;5064978;28;20029;-79
2022/05/14 00:38:24;;;;;;;1.00;0.60;;;;;;;30.92;18.56;98394.53;5063812;28;20040;-80
2022/05/14 00:41:01;;;;;;;1.05;0.65;;;;;;;30.91;18.36;98395.00;5064493;28;20501;-80
2022/05/14 00:43:27;;;;;;;2.00;0.80;;;;;;;31.18;18.52;98389.31;5065884;28;20027;-80
2022/05/14 00:46:21;;;;;;;1.27;0.60;;;;;;;31.20;18.17;98392.44;5050922;28;20028;-80
2022/05/14 00:48:50;;;;;;;0.52;0.50;;;;;;;31.46;17.78;98390.81;5068217;28;20536;-80
2022/05/14 00:51:20;;;;;;;0.80;0.57;;;;;;;31.43;17.69;98394.63;5054645;28;20512;-79
2022/05/14 00:53:52;;;;;;;1.07;0.93;;;;;;;31.41;18.07;98383.72;5064448;28;20481;-79
2022/05/14 00:56:23;;;;;;;0.80;0.60;;;;;;;31.32;18.23;98385.81;5063145;28;20127;-79
2022/05/14 00:59:07;;;;;;;3.00;0.55;;;;;;;31.22;18.19;98381.41;5063059;28;20024;-79
2022/05/14 01:01:35;;;;;;;0.55;0.30;;;;;;;31.15;18.38;98382.53;5064227;28;21854;-79
2022/05/14 01:04:01;;;;;;;1.02;0.55;;;;;;;31.20;18.43;98381.09;5064847;28;20035;-79
2022/05/14 01:06:29;;;;;;;1.08;0.65;;;;;;;31.18;18.28;98380.78;5065289;28;20120;-79
2022/05/14 01:08:57;;;;;;;4.22;0.85;;;;;;;31.19;18.44;98382.34;5068946;28;20452;-79
2022/05/14 01:11:24;;;;;;;1.73;0.60;;;;;;;31.33;17.95;98385.31;5067410;28;20029;-79
2022/05/14 01:13:50;;;;;;;5.72;0.70;;;;;;;31.39;17.98;98385.47;5067434;28;20059;-79
2022/05/14 01:16:17;;;;;;;3.80;0.50;;;;;;;31.37;18.28;98379.47;5067918;28;20075;-78
2022/05/14 01:18:43;;;;;;;0.80;0.50;;;;;;;31.51;18.01;98378.06;5068001;28;20063;-79
2022/05/14 01:21:20;;;;;;;0.80;0.50;;;;;;;31.60;17.81;98381.63;5048991;28;20493;-80
2022/05/14 01:26:59;;;;;;;0.82;0.47;;;;;;;31.01;18.58;98388.06;5067818;28;20055;-80
2022/05/14 01:29:26;;;;;;;5.60;1.95;;;;;;;30.87;18.78;98394.34;5066792;28;20032;-79
2022/05/14 01:31:55;;;;;;;1.27;0.52;;;;;;;30.83;18.74;98390.88;5068763;28;20036;-79
2022/05/14 01:34:24;;;;;;;2.40;0.70;;;;;;;30.68;19.03;98394.34;5069980;28;20533;-79
2022/05/14 01:36:51;;;;;;;4.13;0.60;;;;;;;30.30;19.58;98399.59;5069331;28;20040;-80
2022/05/14 01:39:18;;;;;;;0.70;0.60;;;;;;;29.93;20.02;98400.75;5064516;28;20021;-79
2022/05/14 01:41:44;;;;;;;0.85;0.40;;;;;;;29.73;20.00;98403.19;5067888;28;20048;-79
2022/05/14 01:44:10;;;;;;;1.25;0.70;;;;;;;29.87;19.72;98397.75;5069309;28;20551;-80
2022/05/14 01:46:36;;;;;;;2.17;0.77;;;;;;;30.01;19.49;98397.16;5068856;28;20506;-79
2022/05/14 01:49:03;;;;;;;2.95;0.60;;;;;;;29.98;19.34;98392.44;5065906;28;20024;-79
2022/05/14 01:51:30;;;;;;;0.75;0.50;;;;;;;30.03;19.54;98389.00;5069906;28;20059;-80
2022/05/14 01:53:57;;;;;;;2.55;0.73;;;;;;;30.01;19.43;98390.72;5067927;28;20093;-79
2022/05/14 01:56:23;;;;;;;4.35;0.90;;;;;;;30.18;19.19;98386.34;5070013;28;20442;-79
2022/05/14 01:58:49;;;;;;;1.00;0.50;;;;;;;30.13;19.34;98389.03;5070706;28;20029;-80
2022/05/14 02:01:29;;;;;;;1.55;0.75;;;;;;;30.23;19.01;98390.63;5065663;28;20056;-79
2022/05/14 02:03:58;;;;;;;1.60;0.70;;;;;;;30.37;19.05;98395.72;5071202;28;20054;-79
2022/05/14 02:06:26;;;;;;;0.82;0.63;;;;;;;30.46;19.03;98396.50;5070012;28;20460;-79
2022/05/14 02:08:52;;;;;;;2.97;0.88;;;;;;;30.46;19.19;98393.69;5067734;28;20041;-79
2022/05/14 02:11:18;;;;;;;3.10;0.75;;;;;;;30.26;18.94;98396.16;5065515;28;20115;-79
2022/05/14 02:13:45;;;;;;;0.60;0.60;;;;;;;30.17;19.70;98384.00;5068446;28;20045;-79
2022/05/14 02:16:12;;;;;;;0.63;0.50;;;;;;;29.75;19.79;98387.31;5069390;28;20189;-79
2022/05/14 02:18:38;;;;;;;1.00;0.60;;;;;;;29.74;19.85;98387.75;5069349;28;20562;-79
2022/05/14 02:21:05;;;;;;;0.98;0.82;;;;;;;29.60;19.95;98391.94;5065377;28;20040;-79
2022/05/14 02:23:32;;;;;;;1.50;0.70;;;;;;;29.64;19.58;98391.81;5069447;28;20036;-79
2022/05/14 02:25:58;;;;;;;0.80;0.57;;;;;;;29.44;19.98;98392.19;5069899;28;20040;-79
2022/05/14 02:28:25;;;;;;;1.27;0.70;;;;;;;29.32;20.30;98401.53;5069519;28;20051;-79
2022/05/14 02:30:51;;;;;;;1.75;0.60;;;;;;;29.25;20.24;98399.78;5066661;28;20044;-79
2022/05/14 02:33:17;;;;;;;1.45;0.60;;;;;;;29.19;20.38;98395.97;5062460;28;20048;-79
2022/05/14 02:35:43;;;;;;;1.25;0.65;;;;;;;28.89;20.60;98390.22;5069731;28;20067;-79
2022/05/14 02:38:12;;;;;;;0.90;0.75;;;;;;;28.86;20.57;98394.75;5063050;28;20040;-79
2022/05/14 02:40:38;;;;;;;1.27;0.88;;;;;;;29.17;20.52;98395.59;5066515;28;20036;-79
2022/05/14 02:43:05;;;;;;;1.27;0.60;;;;;;;29.35;19.99;98394.97;5064517;28;20105;-79
2022/05/14 02:45:31;;;;;;;1.48;0.75;;;;;;;29.36;19.80;98385.19;5067069;28;20041;-79
2022/05/14 02:47:57;;;;;;;5.13;1.23;;;;;;;29.09;20.29;98391.47;5067453;28;20047;-79
2022/05/14 02:50:23;;;;;;;1.05;0.80;;;;;;;28.77;20.64;98385.41;5063425;28;20036;-79
2022/05/14 02:52:50;;;;;;;5.38;0.60;;;;;;;28.97;20.43;98391.53;5066250;28;20027;-79
2022/05/14 02:55:16;;;;;;;3.22;0.82;;;;;;;29.06;20.58;98395.19;5063485;28;20041;-79
2022/05/14 02:57:42;;;;;;;2.40;0.88;;;;;;;29.18;19.89;98394.38;5067483;28;20086;-79
2022/05/14 03:00:12;;;;;;;1.50;0.75;;;;;;;29.16;19.61;98396.06;5065546;28;20036;-79
2022/05/14 03:02:38;;;;;;;1.33;0.73;;;;;;;29.11;20.41;98399.47;5068747;28;20028;-79
2022/05/14 03:05:06;;;;;;;1.75;1.00;;;;;;;29.09;19.94;98402.78;5064326;28;20130;-79
2022/05/14 03:07:32;;;;;;;3.20;0.85;;;;;;;29.21;20.16;98401.94;5066505;28;20063;-79
2022/05/14 03:09:58;;;;;;;3.10;0.80;;;;;;;29.04;20.52;98405.41;5064551;28;20115;-79
2022/05/14 03:12:24;;;;;;;1.83;0.75;;;;;;;29.08;20.08;98404.00;5068488;28;20043;-79
2022/05/14 03:14:51;;;;;;;1.27;0.73;;;;;;;29.20;20.03;98403.19;5069640;28;20041;-79
2022/05/14 03:17:18;;;;;;;1.48;0.88;;;;;;;29.35;19.73;98398.59;5064384;28;20028;-79
2022/05/14 03:19:44;;;;;;;2.28;0.70;;;;;;;29.39;19.88;98412.56;5066054;28;20516;-79
2022/05/14 03:22:10;;;;;;;1.13;0.73;;;;;;;29.53;19.50;98414.06;5070579;28;20086;-79
2022/05/14 03:24:37;;;;;;;1.20;0.90;;;;;;;29.64;19.38;98409.56;5064640;28;20486;-79
2022/05/14 03:27:05;;;;;;;1.13;0.70;;;;;;;29.42;19.79;98420.16;5068916;28;20036;-79
2022/05/14 03:29:32;;;;;;;1.13;1.02;;;;;;;29.18;20.12;98413.38;5069276;28;20051;-79
2022/05/14 03:31:58;;;;;;;1.45;1.00;;;;;;;29.10;20.32;98423.38;5066284;28;20103;-79
2022/05/14 03:34:26;;;;;;;1.80;0.80;;;;;;;29.04;20.39;98420.31;5068181;28;20395;-80
2022/05/14 03:36:53;;;;;;;3.60;0.98;;;;;;;29.45;20.00;98415.59;5070109;28;20493;-80
2022/05/14 03:39:19;;;;;;;1.75;0.90;;;;;;;29.74;19.76;98421.72;5062525;28;20044;-79
2022/05/14 03:41:46;;;;;;;1.42;0.70;;;;;;;29.94;19.44;98428.59;5068762;28;20040;-79
2022/05/14 03:44:12;;;;;;;0.57;0.57;;;;;;;30.09;19.35;98426.78;5067324;28;20535;-80
2022/05/14 03:46:38;;;;;;;0.82;0.80;;;;;;;30.44;19.19;98424.53;5066728;28;20034;-79
2022/05/14 03:49:05;;;;;;;0.88;0.70;;;;;;;30.83;19.07;98431.34;5065970;28;20107;-79
2022/05/14 03:51:32;;;;;;;1.00;0.82;;;;;;;30.48;19.43;98428.00;5068660;28;20043;-80
2022/05/14 03:53:59;;;;;;;1.52;0.90;;;;;;;30.33;19.79;98432.72;5066713;28;20154;-79
2022/05/14 03:56:26;;;;;;;1.15;0.70;;;;;;;30.92;19.73;98425.72;5066770;28;20551;-80
2022/05/14 03:58:52;;;;;;;2.72;0.70;;;;;;;31.42;19.07;98433.56;5068442;28;20040;-80
2022/05/14 04:01:18;;;;;;;2.03;1.00;;;;;;;31.78;19.27;98434.75;5065336;28;20151;-79
2022/05/14 04:03:45;;;;;;;1.77;0.80;;;;;;;31.49;19.45;98435.28;5064691;28;20036;-80
2022/05/14 04:06:11;;;;;;;3.47;0.80;;;;;;;30.83;19.95;98437.00;5066300;28;20394;-79
2022/05/14 04:08:38;;;;;;;1.80;0.80;;;;;;;31.21;19.98;98433.72;5066710;28;20040;-80
2022/05/14 04:11:05;;;;;;;3.17;0.80;;;;;;;31.55;19.50;98441.91;5066356;28;20032;-80
2022/05/14 04:13:32;;;;;;;1.17;0.88;;;;;;;31.50;19.24;98442.56;5066685;28;20439;-79
2022/05/14 04:15:58;;;;;;;1.70;0.80;;;;;;;31.48;19.79;98436.56;5069734;28;20402;-80
2022/05/14 04:18:25;;;;;;;1.20;1.00;;;;;;;31.41;19.01;98437.63;5067863;28;20029;-80
2022/05/14 04:20:56;;;;;;;1.08;0.82;;;;;;;31.49;19.33;98435.28;5070292;28;20397;-80
2022/05/14 04:23:25;;;;;;;1.45;0.82;;;;;;;31.67;19.41;98440.16;5063491;28;20110;-80
2022/05/14 04:25:52;;;;;;;1.73;0.70;;;;;;;32.04;18.89;98438.78;5068256;28;20499;-79
2022/05/14 04:28:19;;;;;;;1.88;1.05;;;;;;;32.47;19.07;98445.97;5048609;28;20024;-80
2022/05/14 04:30:46;;;;;;;5.07;0.90;;;;;;;32.80;18.24;98443.09;5065324;28;20025;-80
2022/05/14 04:33:13;;;;;;;3.33;0.90;;;;;;;33.11;18.72;98440.66;5069397;28;20032;-80
2022/05/14 04:35:40;;;;;;;2.75;1.58;;;;;;;33.28;17.92;98442.53;5067716;28;20056;-80
2022/05/14 04:38:07;;;;;;;2.65;0.70;;;;;;;33.48;18.22;98433.34;5067120;28;20033;-80
2022/05/14 04:40:33;;;;;;;3.10;1.08;;;;;;;33.76;17.82;98440.34;5065151;28;20040;-80
2022/05/14 04:42:59;;;;;;;0.73;0.63;;;;;;;34.05;18.21;98445.25;5065312;28;20470;-80
2022/05/14 04:45:25;;;;;;;1.05;0.50;;;;;;;34.33;17.96;98446.44;5064140;28;20522;-80
2022/05/14 04:47:51;;;;;;;2.10;0.70;;;;;;;34.56;17.52;98451.25;5063414;28;20525;-79
2022/05/14 04:50:17;;;;;;;1.27;0.70;;;;;;;34.75;17.00;98451.75;5066431;28;20402;-80
2022/05/14 04:52:43;;;;;;;0.68;0.40;;;;;;;34.60;16.30;98453.88;5064749;28;20043;-80
2022/05/14 04:55:10;;;;;;;0.82;0.70;;;;;;;34.54;16.62;98453.78;5047376;28;20036;-80
2022/05/14 04:57:38;;;;;;;1.10;0.50;;;;;;;34.05;16.98;98450.94;5061142;28;20045;-80
2022/05/14 05:00:05;;;;;;;1.02;0.60;;;;;;;34.03;17.37;98450.63;5060313;28;20028;-78
2022/05/14 05:05:15;;;;;;;1.52;1.00;;;;;;;32.42;18.38;98460.81;5064948;28;22337;-79
2022/05/14 05:07:42;;;;;;;1.33;0.75;;;;;;;31.70;19.15;98461.88;5065490;28;20039;-79
2022/05/14 05:10:08;;;;;;;1.13;0.90;;;;;;;31.50;19.27;98456.75;5063822;28;20043;-79
2022/05/14 05:12:34;;;;;;;3.30;1.00;;;;;;;31.34;19.41;98465.56;5062995;28;20036;-79
2022/05/14 05:15:00;;;;;;;1.85;1.15;;;;;;;31.70;18.53;98462.69;5044263;28;20036;-79
2022/05/14 05:17:26;;;;;;;3.33;1.42;;;;;;;31.87;18.50;98466.75;5060542;28;20093;-78
2022/05/14 05:19:52;;;;;;;3.85;1.20;;;;;;;32.31;18.33;98466.25;5063880;28;20055;-78
2022/05/14 05:22:18;;;;;;;1.45;0.82;;;;;;;32.48;18.25;98470.28;5063775;28;20043;-78
2022/05/14 05:24:44;;;;;;;2.15;1.23;;;;;;;32.32;17.74;98474.31;5060856;28;20097;-78
2022/05/14 05:27:10;;;;;;;1.90;1.20;;;;;;;32.10;17.74;98465.25;5062112;28;20029;-78
2022/05/14 05:29:36;;;;;;;4.90;1.30;;;;;;;32.00;17.98;98473.03;5063569;28;20216;-79
2022/05/14 05:32:03;;;;;;;7.60;1.45;;;;;;;32.21;18.17;98464.75;5064240;28;20137;-80
2022/05/14 05:34:29;;;;;;;1.58;0.90;;;;;;;32.60;17.20;98469.31;5063459;28;20155;-79
2022/05/14 05:36:55;;;;;;;1.98;1.00;;;;;;;32.91;16.70;98474.63;5044492;28;20043;-79
2022/05/14 05:39:21;;;;;;;1.27;0.85;;;;;;;32.81;16.73;98470.25;5059984;28;20037;-79
2022/05/14 05:41:47;;;;;;;4.70;0.93;;;;;;;33.13;16.56;98469.41;5063029;28;20029;-79
2022/05/14 05:44:13;;;;;;;2.28;0.98;;;;;;;32.69;16.57;98474.94;5060435;28;20055;-79
2022/05/14 05:46:39;;;;;;;1.95;1.17;;;;;;;32.80;17.09;98471.53;5062520;28;20032;-79
2022/05/14 05:49:05;;;;;;;2.58;0.95;;;;;;;32.84;17.00;98478.59;5063507;28;20094;-79
2022/05/14 05:51:32;;;;;;;1.73;1.02;;;;;;;33.00;16.91;98472.47;5067468;28;20104;-79
2022/05/14 05:56:46;;;;;;;1.70;0.93;;;;;;;32.92;16.95;98474.13;5069308;28;20047;-79
2022/05/14 05:59:14;;;;;;;1.23;0.95;;;;;;;32.37;17.14;98472.88;5067929;28;20037;-79
2022/05/14 06:01:40;;;;;;;2.47;0.93;;;;;;;32.23;16.67;98467.91;5064733;28;20067;-79
2022/05/14 06:04:06;;;;;;;3.08;1.05;;;;;;;32.33;16.76;98469.41;5067416;28;20140;-78
2022/05/14 06:06:32;;;;;;;6.78;1.10;;;;;;;32.41;17.13;98479.97;5067144;28;20032;-79
2022/05/14 06:09:00;;;;;;;3.20;1.13;;;;;;;32.32;16.03;98479.22;5064141;28;20509;-79
2022/05/14 06:11:26;;;;;;;2.45;1.02;;;;;;;32.16;16.64;98474.69;5068204;28;20068;-79
2022/05/14 06:13:52;;;;;;;2.35;0.88;;;;;;;31.98;17.52;98471.94;5047729;28;20110;-79
2022/05/14 06:16:18;;;;;;;2.45;1.00;;;;;;;31.79;16.97;98464.69;5065761;28;20045;-79
2022/05/14 06:18:44;;;;;;;1.73;0.55;;;;;;;31.43;17.89;98465.59;5068040;28;20020;-79
2022/05/14 06:21:13;;;;;;;3.58;0.85;;;;;;;31.67;18.12;98466.47;5069397;28;20040;-79
2022/05/14 06:23:39;;;;;;;2.53;1.00;;;;;;;31.90;17.60;98462.94;5067781;28;20086;-78
2022/05/14 06:26:05;;;;;;;7.43;1.23;;;;;;;32.60;16.68;98461.53;5069610;28;20466;-78
2022/05/14 06:28:31;;;;;;;1.30;0.90;;;;;;;32.32;16.10;98462.16;5068864;28;20036;-79
2022/05/14 06:30:58;;;;;;;4.10;1.10;;;;;;;31.58;17.54;98466.50;5066904;28;20029;-78
2022/05/14 06:33:26;;;;;;;2.35;0.80;;;;;;;30.94;18.17;98459.28;5067682;28;20038;-78
2022/05/14 06:35:53;;;;;;;2.97;1.17;;;;;;;30.55;18.49;98463.78;5065179;28;20084;-79
2022/05/14 06:38:19;;;;;;;1.75;0.90;;;;;;;31.42;17.14;98455.47;5067698;28;20056;-79
2022/05/14 06:40:46;;;;;;;2.30;1.00;;;;;;;31.60;17.42;98460.34;5067260;28;20066;-79
2022/05/14 06:43:16;;;;;;;1.42;0.95;;;;;;;31.80;17.37;98452.88;5050348;28;20087;-79
2022/05/14 06:45:43;;;;;;;4.53;1.45;;;;;;;31.87;16.98;98449.69;5051077;28;20781;-79
2022/05/14 06:48:10;;;;;;;2.28;1.35;;;;;;;31.93;16.68;98447.78;5069878;28;20094;-79
2022/05/14 06:50:44;;;;;;;4.28;1.55;;;;;;;32.53;16.43;98436.34;5068065;28;20037;-79
2022/05/14 06:53:12;;;;;;;4.75;1.30;;;;;;;32.73;15.67;98445.03;5067058;28;20036;-79
2022/05/14 06:55:40;;;;;;;3.53;1.17;;;;;;;32.84;16.06;98427.41;5066464;28;20463;-79
2022/05/14 06:58:08;;;;;;;3.60;1.00;;;;;;;32.93;15.76;98421.63;5068879;28;20486;-79
2022/05/14 07:00:35;;;;;;;2.53;0.93;;;;;;;32.28;16.53;98433.91;5070062;28;20060;-79
2022/05/14 07:08:30;;;;;;;3.30;0.80;;;;;;;33.33;16.22;98441.84;5066941;28;20516;-79
2022/05/14 07:10:56;;;;;;;1.13;0.70;;;;;;;33.84;15.73;98437.88;5045924;28;20037;-79
2022/05/14 07:13:22;;;;;;;2.40;1.05;;;;;;;33.56;14.99;98440.22;5068136;28;20101;-79
2022/05/14 07:15:48;;;;;;;1.27;0.85;;;;;;;32.92;15.48;98457.06;5067262;28;20029;-80
2022/05/14 07:18:14;;;;;;;2.13;0.70;;;;;;;33.19;15.71;98451.16;5067741;28;20037;-81
2022/05/14 07:20:41;;;;;;;4.75;0.60;;;;;;;33.08;15.95;98447.31;5057058;28;20029;-80
2022/05/14 07:23:07;;;;;;;2.60;0.60;;;;;;;33.58;15.07;98445.44;5070967;28;20107;-79
2022/05/14 07:25:33;;;;;;;2.88;0.63;;;;;;;33.57;14.94;98453.19;5070482;28;20040;-79
2022/05/14 07:27:59;;;;;;;1.98;0.60;;;;;;;33.75;15.32;98453.00;5070965;28;20025;-79
2022/05/14 07:30:25;;;;;;;4.97;0.95;;;;;;;32.33;15.50;98456.00;5053132;28;20033;-79
2022/05/14 07:32:52;;;;;;;2.08;0.65;;;;;;;33.31;16.28;98455.81;5050910;28;20494;-79
2022/05/14 07:35:18;;;;;;;1.63;0.95;;;;;;;33.56;16.04;98460.16;5052148;28;20414;-79
2022/05/14 07:37:50;;;;;;;2.58;0.70;;;;;;;32.35;16.82;98458.38;5069715;28;20036;-79
2022/05/14 07:40:23;;;;;;;1.48;0.63;;;;;;;32.44;16.62;98464.75;5069910;28;20024;-79
2022/05/14 07:42:59;;;;;;;1.95;0.60;;;;;;;32.79;15.57;98455.75;5067210;28;20036;-79
2022/05/14 07:45:32;;;;;;;1.48;0.70;;;;;;;32.67;16.05;98455.47;5071375;28;20039;-79
2022/05/14 07:48:01;;;;;;;0.80;0.57;;;;;;;31.74;17.38;98468.22;5065955;28;20044;-79
2022/05/14 07:50:28;;;;;;;4.90;0.63;;;;;;;31.67;17.07;98468.53;5068071;28;20033;-79
2022/05/14 07:52:54;;;;;;;1.90;0.52;;;;;;;32.68;16.11;98454.22;5069608;28;20025;-79
2022/05/14 07:55:21;;;;;;;1.05;0.40;;;;;;;32.54;16.75;98465.53;5069291;28;20040;-79
2022/05/14 07:57:47;;;;;;;1.80;0.70;;;;;;;32.50;16.72;98471.41;5066378;28;20055;-80
2022/05/14 08:00:13;;;;;;;3.63;1.30;;;;;;;32.42;16.45;98466.50;5069057;28;20402;-79
2022/05/14 08:02:43;;;;;;;1.75;0.80;;;;;;;31.77;17.28;98478.59;5071797;28;20056;-79
2022/05/14 08:05:10;;;;;;;1.70;0.80;;;;;;;31.21;17.37;98470.63;5068671;28;20032;-79
2022/05/14 08:07:37;;;;;;;2.38;0.93;;;;;;;31.74;17.33;98465.38;5068341;28;20059;-79
2022/05/14 08:10:05;;;;;;;2.20;0.70;;;;;;;32.32;17.35;98476.38;5068680;28;20033;-80
2022/05/14 08:12:34;;;;;;;3.00;0.73;;;;;;;32.06;17.05;98471.13;5068405;28;20028;-79
2022/05/14 08:15:00;;;;;;;3.22;0.68;;;;;;;32.16;17.31;98462.56;5066719;28;20044;-78
2022/05/14 08:17:27;;;;;;;2.90;0.93;;;;;;;32.12;16.74;98476.13;5068545;28;20064;-79
2022/05/14 08:19:53;;;;;;;1.58;0.82;;;;;;;31.66;17.38;98476.28;5067891;28;20036;-78
2022/05/14 08:25:07;;;;;;;4.38;0.82;;;;;;;32.16;17.03;98466.16;5069348;28;20059;-78
2022/05/14 08:27:44;;;;;;;1.92;0.73;;;;;;;32.77;16.34;98459.06;5065243;28;20040;-79
2022/05/14 08:30:15;;;;;;;2.00;0.63;;;;;;;32.39;17.25;98464.66;5069294;28;20044;-78
2022/05/14 08:32:42;;;;;;;3.42;1.00;;;;;;;32.13;16.82;98463.50;5068220;28;20040;-79
2022/05/14 08:35:08;;;;;;;5.78;1.13;;;;;;;31.68;17.05;98456.69;5067716;28;20498;-79
2022/05/14 08:37:35;;;;;;;4.55;1.58;;;;;;;32.48;16.05;98456.06;5066359;28;20083;-79
2022/05/14 08:40:19;;;;;;;2.03;0.77;;;;;;;32.82;17.45;98466.94;5067297;28;20051;-78
2022/05/14 08:42:51;;;;;;;7.22;0.82;;;;;;;32.81;16.14;98467.41;5065600;28;20398;-79
2022/05/14 08:45:21;;;;;;;7.47;1.00;;;;;;;32.50;16.88;98457.19;5066645;28;20071;-79
2022/05/14 08:48:04;;;;;;;1.97;0.57;;;;;;;33.20;16.77;98452.75;5063559;28;20097;-79
2022/05/14 08:50:35;;;;;;;3.50;1.00;;;;;;;33.19;16.18;98453.22;5065073;28;20461;-79
2022/05/14 08:53:02;;;;;;;;;;;;;;;32.25;17.08;98451.94;5068259;28;20029;-79
2022/05/14 08:55:46;;;;;;;1.13;0.50;;;;;;;31.94;17.28;98457.09;5061578;28;19928;-79
2022/05/14 08:58:36;;;;;;;8.73;0.88;;;;;;;32.62;16.30;98453.34;5066821;28;20036;-79
2022/05/14 09:01:05;;;;;;;4.22;0.75;;;;;;;32.28;17.14;98455.88;5051131;28;20115;-79
2022/05/14 09:03:32;;;;;;;1.55;0.50;;;;;;;33.59;16.11;98438.47;5064695;28;20029;-79
2022/05/14 09:05:59;;;;;;;3.58;0.50;;;;;;;34.33;15.18;98440.75;5066052;28;20032;-79
2022/05/14 09:08:26;;;;;;;1.25;0.55;;;;;;;32.89;15.62;98443.81;5064775;28;20115;-80
2022/05/14 09:11:05;;;;;;;1.67;0.70;;;;;;;32.66;15.37;98436.88;5060035;28;20036;-79
2022/05/14 09:13:43;;;;;;;1.42;0.60;;;;;;;32.32;17.19;98416.69;5058541;28;20048;-79
2022/05/14 09:16:30;;;;;;;2.28;0.60;;;;;;;33.42;15.56;98419.00;5066073;28;20032;-79
2022/05/14 09:18:56;;;;;;;2.45;0.82;;;;;;;32.69;16.46;98421.69;5068820;28;20041;-80
2022/05/14 09:21:25;;;;;;;2.97;0.52;;;;;;;32.96;15.45;98409.28;5066284;28;20028;-82
2022/05/14 09:24:03;;;;;;;1.37;0.67;;;;;;;33.29;15.26;98397.78;5067640;28;20068;-81
2022/05/14 09:26:37;;;;;;;4.05;0.60;;;;;;;33.51;15.58;98405.94;5070737;28;20445;-81
2022/05/14 09:29:27;;;;;;;3.10;0.70;;;;;;;34.30;15.25;98410.38;5068807;28;20379;-80
2022/05/14 09:31:59;;;;;;;1.58;0.80;;;;;;;33.70;14.32;98399.56;5069698;28;20047;-81
2022/05/14 09:34:30;;;;;;;0.70;0.45;;;;;;;33.64;15.60;98400.75;5071430;28;20035;-81
2022/05/14 09:37:07;;;;;;;0.95;0.50;;;;;;;33.11;16.44;98404.44;5067112;28;20032;-80
2022/05/14 09:39:33;;;;;;;2.38;0.60;;;;;;;33.39;16.57;98402.13;5065889;28;20685;-80
2022/05/14 09:42:01;;;;;;;1.05;0.40;;;;;;;33.05;16.20;98400.69;5067153;28;21288;-80
2022/05/14 09:44:42;;;;;;;1.77;0.60;;;;;;;32.68;15.49;98402.25;5067369;28;20506;-80
2022/05/14 09:47:30;;;;;;;0.57;0.40;;;;;;;32.86;16.37;98396.41;5069910;28;20037;-80
2022/05/14 09:50:03;;;;;;;0.35;0.35;;;;;;;31.61;17.36;98410.81;5071857;28;20040;-78
2022/05/14 09:52:32;;;;;;;3.40;0.80;;;;;;;31.46;16.88;98407.09;5071947;28;20564;-77
2022/05/14 09:55:03;;;;;;;1.75;0.73;;;;;;;32.04;17.50;98405.44;5073472;28;20452;-79
2022/05/14 09:58:20;;;;;;;0.83;0.40;;;;;;;32.54;16.47;98408.66;5075074;28;20477;-78
2022/05/14 10:01:07;;;;;;;3.05;0.93;;;;;;;32.94;16.10;98400.47;5052585;28;20044;-78
2022/05/14 10:03:59;;;;;;;1.17;0.40;;;;;;;33.52;15.52;98399.75;5063616;28;20040;-79
2022/05/14 10:06:53;;;;;;;0.68;0.30;;;;;;;34.26;14.87;98391.91;5072580;28;20033;-79
2022/05/14 10:09:23;;;;;;;1.05;0.45;;;;;;;34.12;15.60;98384.19;5072056;28;20099;-78
2022/05/14 10:12:25;;;;;;;1.75;0.63;;;;;;;34.48;14.08;98395.84;5074750;28;20390;-80
2022/05/14 10:15:08;;;;;;;3.85;0.73;;;;;;;33.92;14.98;98384.91;5001278;28;20053;-79
2022/05/14 10:18:11;;;;;;;2.03;0.50;;;;;;;33.15;15.02;98390.00;5065024;28;20048;-78
2022/05/14 10:21:00;;;;;;;1.60;0.47;;;;;;;33.71;14.87;98383.25;5071731;28;20045;-80
2022/05/14 10:27:00;;;;;;;1.00;0.40;;;;;;;33.48;15.98;98384.13;5072835;28;20067;-80
2022/05/14 10:29:54;;;;;;;3.75;0.60;;;;;;;33.21;15.47;98386.00;5059429;28;20036;-80
2022/05/14 10:32:21;;;;;;;1.48;0.45;;;;;;;33.76;16.01;98391.13;5067953;28;20032;-79
2022/05/14 10:35:09;;;;;;;2.30;0.50;;;;;;;34.34;14.15;98384.50;5072695;28;20039;-80
2022/05/14 10:38:28;;;;;;;3.08;0.80;;;;;;;32.59;15.22;98383.22;5071093;28;20539;-79
2022/05/14 10:41:03;;;;;;;1.60;0.60;;;;;;;32.64;16.32;98381.75;5033582;28;20098;-79
2022/05/14 10:43:47;;;;;;;2.13;0.60;;;;;;;34.06;16.12;98375.56;5064530;28;20033;-79
2022/05/14 10:46:18;;;;;;;1.88;0.70;;;;;;;33.00;16.08;98375.72;5068182;28;20075;-79
2022/05/14 10:48:55;;;;;;;1.20;0.70;;;;;;;33.48;15.50;98373.53;5066309;28;20048;-79
2022/05/14 10:51:24;;;;;;;2.65;0.70;;;;;;;33.97;14.99;98367.91;5068558;28;20486;-79
2022/05/14 10:53:54;;;;;;;2.63;0.65;;;;;;;34.61;14.62;98370.63;5068237;28;20044;-80
2022/05/14 10:56:33;;;;;;;1.27;0.60;;;;;;;35.50;14.28;98362.28;5072156;28;20025;-77
2022/05/14 10:59:12;;;;;;;0.93;0.50;;;;;;;35.52;13.83;98365.44;5066912;28;20041;-77
2022/05/14 11:01:46;;;;;;;0.50;0.50;;;;;;;34.07;14.70;98368.59;5059776;28;20134;-77
2022/05/14 11:04:15;;;;;;;2.22;0.70;;;;;;;33.91;14.85;98357.69;5066820;28;20065;-77
2022/05/14 11:07:00;;;;;;;1.70;0.90;;;;;;;32.85;15.33;98363.56;5068969;28;20394;-77
2022/05/14 11:09:49;;;;;;;2.97;0.60;;;;;;;33.19;15.53;98347.91;5069377;28;20032;-77
2022/05/14 11:12:21;;;;;;;0.82;0.60;;;;;;;32.91;15.91;98350.22;5069957;28;20025;-77
2022/05/14 11:14:51;;;;;;;3.08;0.75;;;;;;;32.70;15.65;98345.66;5070195;28;20102;-77
2022/05/14 11:17:23;;;;;;;1.45;0.60;;;;;;;33.10;15.53;98353.69;5072804;28;20032;-76
2022/05/14 11:19:51;;;;;;;1.92;0.75;;;;;;;33.21;15.79;98337.59;5069744;28;20398;-78
2022/05/14 11:22:24;;;;;;;3.63;0.88;;;;;;;33.73;16.18;98349.38;5072402;28;20035;-78
2022/05/14 11:24:52;;;;;;;1.52;0.70;;;;;;;33.95;15.05;98346.88;5070370;28;20045;-78
2022/05/14 11:27:31;;;;;;;3.92;1.02;;;;;;;33.57;14.73;98349.88;5071554;28;20028;-78
2022/05/14 11:30:02;;;;;;;2.13;0.60;;;;;;;33.81;14.69;98353.41;5070777;28;20490;-78
2022/05/14 11:32:41;;;;;;;3.10;0.70;;;;;;;33.57;14.91;98352.75;5070757;28;20106;-78
2022/05/14 11:35:07;;;;;;;0.75;0.52;;;;;;;32.82;16.07;98370.22;5072041;28;20029;-78
2022/05/14 11:37:39;;;;;;;1.70;0.75;;;;;;;32.15;16.24;98358.69;5065296;28;20040;-78
2022/05/14 11:40:20;;;;;;;4.30;0.90;;;;;;;32.59;15.71;98351.13;5066929;28;20024;-78
2022/05/14 11:42:52;;;;;;;1.65;0.60;;;;;;;32.57;15.92;98348.00;5072136;28;20036;-78
2022/05/14 11:45:26;;;;;;;2.20;0.55;;;;;;;33.29;15.13;98346.53;5071090;28;20100;-78
2022/05/14 11:48:09;;;;;;;2.40;0.60;;;;;;;33.87;15.09;98343.66;5070802;28;20056;-78
2022/05/14 11:50:47;;;;;;;2.75;0.60;;;;;;;33.49;14.93;98331.63;5070455;28;20025;-78
2022/05/14 11:53:22;;;;;;;0.68;0.60;;;;;;;32.94;15.15;98345.63;5066672;28;20462;-78
2022/05/14 11:55:55;;;;;;;2.92;0.50;;;;;;;32.49;15.73;98346.75;5069605;28;20032;-78
2022/05/14 11:58:36;;;;;;;2.03;0.50;;;;;;;33.24;16.62;98355.78;5066403;28;20490;-77
2022/05/14 12:01:13;;;;;;;4.13;0.95;;;;;;;34.99;15.00;98348.75;5067704;28;20044;-78
2022/05/14 12:03:44;;;;;;;1.48;0.50;;;;;;;35.69;14.08;98344.28;5068518;28;20032;-77
2022/05/14 12:06:22;;;;;;;1.70;0.50;;;;;;;36.11;13.74;98343.53;5064190;28;20020;-78
2022/05/14 12:08:54;;;;;;;1.45;0.93;;;;;;;35.57;14.68;98341.84;5071171;28;20090;-78
2022/05/14 12:11:29;;;;;;;3.35;0.60;;;;;;;36.34;13.21;98342.38;5069041;28;20060;-79